Time;durP1;ratioP1;P1;durP2;ratioP2;P2;SDS_P1;SDS_P2;PMS_P1;PMS_P2;Temp;Humidity;BMP_temperature;BMP_pressure;BME280_temperature;BME280_humidity;BME280_pressure;Samples;Min_cycle;Max_cycle;Signal;HPM_P1;HPM_P2
2022/09/11 14:44:03;;;;;;;;;;;19.20;99.90;;;;;;2614403;47;20418;-69
2022/09/11 14:46:33;;;;;;;;;;;24.00;99.90;;;;;;2615789;54;20057;-70
2022/09/11 14:49:02;;;;;;;;;;;23.70;99.90;;;;;;2616339;47;19954;-69
2022/09/11 14:51:32;;;;;;;;;;;23.70;99.90;;;;;;2616538;54;19954;-69
2022/09/11 14:54:01;;;;;;;;;;;24.10;99.90;;;;;;2617207;54;19985;-70
2022/09/11 14:56:31;;;;;;;;;;;25.10;99.90;;;;;;2616319;47;19950;-72
2022/09/11 14:59:04;;;;;;;;;;;26.40;99.90;;;;;;2619522;54;19993;-69
2022/09/11 15:01:34;;;;;;;;;;;27.80;99.90;;;;;;2619472;54;19954;-68
2022/09/11 15:04:04;;;;;;;;;;;29.30;99.90;;;;;;2621338;47;19969;-70
2022/09/11 15:06:33;;;;;;;;;;;30.90;99.90;;;;;;2621543;54;20449;-70
2022/09/11 15:09:03;;;;;;;;;;;32.50;99.90;;;;;;2620353;54;19946;-69
2022/09/11 15:11:33;;;;;;;;;;;34.20;99.90;;;;;;2616715;54;19946;-71
2022/09/11 15:14:11;;;;;;;;;;;35.30;99.90;;;;;;2614435;47;19942;-71
2022/09/11 15:16:57;;;;;;;;;;;36.20;99.90;;;;;;2614719;54;19939;-69
2022/09/11 15:19:26;;;;;;;;;;;35.70;99.90;;;;;;2614541;54;19954;-72
2022/09/11 15:21:56;;;;;;;;;;;34.20;99.90;;;;;;2615175;47;20022;-70
2022/09/11 15:24:25;;;;;;;;;;;33.00;99.90;;;;;;2615231;54;19946;-70
2022/09/11 15:26:56;;;;;;;;;;;31.60;99.90;;;;;;2616174;54;19957;-69
2022/09/11 15:29:28;;;;;;;;;;;30.90;99.90;;;;;;2617170;54;19950;-70
2022/09/11 15:32:00;;;;;;;;;;;29.90;99.90;;;;;;2616019;54;20449;-69
2022/09/11 15:34:31;;;;;;;;;;;29.10;99.90;;;;;;2617924;31;20482;-69
2022/09/11 15:37:01;;;;;;;;;;;28.90;99.90;;;;;;2616857;47;19954;-67
2022/09/11 15:39:31;;;;;;;;;;;29.60;99.90;;;;;;2616643;47;19938;-70
2022/09/11 15:42:00;;;;;;;;;;;31.00;99.90;;;;;;2613868;31;20418;-72
2022/09/11 15:44:32;;;;;;;;;;;32.40;99.90;;;;;;2616287;54;19946;-72
2022/09/11 15:47:02;;;;;;;;;;;33.30;99.90;;;;;;2615426;54;19946;-73
2022/09/11 15:49:33;;;;;;;;;;;34.30;99.90;;;;;;2615553;54;19946;-73
2022/09/11 15:52:03;;;;;;;;;;;35.10;99.90;;;;;;2615260;47;19946;-69
2022/09/11 15:54:32;;;;;;;;;;;35.10;99.90;;;;;;2615989;51;19958;-70
2022/09/11 15:57:02;;;;;;;;;;;34.30;99.90;;;;;;2615947;54;19989;-71
2022/09/11 15:59:34;;;;;;;;;;;33.10;99.90;;;;;;2614895;47;19946;-71
2022/09/11 16:02:03;;;;;;;;;;;31.90;99.90;;;;;;2614710;54;19954;-70
2022/09/11 16:04:33;;;;;;;;;;;30.60;99.90;;;;;;2614606;54;20042;-71
2022/09/11 16:07:03;;;;;;;;;;;29.40;99.90;;;;;;2614537;54;20594;-70
2022/09/11 16:09:33;;;;;;;;;;;28.60;99.90;;;;;;2614364;54;20035;-69
2022/09/11 16:12:02;;;;;;;;;;;28.10;99.90;;;;;;2613468;54;19946;-68
2022/09/11 16:14:37;;;;;;;;;;;27.60;99.90;;;;;;2614475;54;19962;-70
2022/09/11 16:17:07;;;;;;;;;;;27.20;99.90;;;;;;2613649;54;20037;-69
2022/09/11 16:19:37;;;;;;;;;;;26.80;99.90;;;;;;2615925;39;20358;-69
2022/09/11 16:22:08;;;;;;;;;;;26.60;99.90;;;;;;2614535;47;19981;-69
2022/09/11 16:24:38;;;;;;;;;;;26.40;99.90;;;;;;2611486;47;19947;-68
2022/09/11 16:27:09;;;;;;;;;;;26.20;99.90;;;;;;2618690;47;19950;-70
2022/09/11 16:29:43;;;;;;;;;;;25.90;99.90;;;;;;2622548;54;19950;-69
2022/09/11 16:32:36;;;;;;;;;;;25.60;99.90;;;;;;2621269;54;19970;-79
2022/09/11 16:35:07;;;;;;;;;;;25.30;99.90;;;;;;2618681;39;20328;-77
2022/09/11 16:37:37;;;;;;;;;;;25.10;99.90;;;;;;2615028;47;20025;-76
2022/09/11 16:40:08;;;;;;;;;;;24.90;99.90;;;;;;2614497;54;20010;-75
2022/09/11 16:42:37;;;;;;;;;;;24.80;99.90;;;;;;2618482;47;20002;-75
2022/09/11 16:45:10;;;;;;;;;;;24.60;99.90;;;;;;2623038;47;19951;-76
2022/09/11 16:47:40;;;;;;;;;;;24.50;99.90;;;;;;2626483;47;19951;-80
2022/09/11 16:50:11;;;;;;;;;;;24.30;99.90;;;;;;2618131;47;19973;-76
2022/09/11 16:52:42;;;;;;;;;;;24.20;99.90;;;;;;2615273;54;20469;-67
2022/09/11 16:55:18;;;;;;;;;;;24.10;99.90;;;;;;2614779;39;20165;-68
2022/09/11 16:57:48;;;;;;;;;;;23.90;99.90;;;;;;2612952;54;19939;-67
2022/09/11 17:00:20;;;;;;;;;;;23.70;99.90;;;;;;2614075;54;20450;-69
2022/09/11 17:02:51;;;;;;;;;;;23.60;99.90;;;;;;2612684;47;19942;-71
2022/09/11 17:05:20;;;;;;;;;;;23.50;99.90;;;;;;2615097;31;20426;-71
2022/09/11 17:07:50;;;;;;;;;;;23.40;99.90;;;;;;2616437;54;19975;-70
2022/09/11 17:10:20;;;;;;;;;;;23.30;99.90;;;;;;2616496;54;19993;-70
2022/09/11 17:12:50;;;;;;;;;;;23.20;99.90;;;;;;2614705;47;19953;-69
2022/09/11 17:15:22;;;;;;;;;;;23.10;99.90;;;;;;2617038;54;19976;-69
2022/09/11 19:30:20;;;;;;;;;;;23.10;99.90;;;;;;2616573;46;19950;-69
2022/09/11 19:32:50;;;;;;;;;;;19.00;99.90;;;;;;2615525;54;19954;-69
2022/09/11 19:35:20;;;;;;;;;;;18.90;99.90;;;;;;2613696;54;19977;-70
2022/09/11 19:37:49;;;;;;;;;;;18.80;99.90;;;;;;2615248;47;20005;-69
2022/09/11 19:40:19;;;;;;;;;;;18.80;99.90;;;;;;2621178;47;19946;-70
2022/09/11 19:42:48;;;;;;;;;;;18.80;99.90;;;;;;2616818;46;19986;-68
2022/09/11 19:45:20;;;;;;;;;;;18.70;99.90;;;;;;2611745;54;19955;-67
2022/09/11 19:47:50;;;;;;;;;;;18.70;99.90;;;;;;2613650;54;19950;-67
2022/09/11 19:50:21;;;;;;;;;;;18.70;99.90;;;;;;2612712;47;19997;-67
2022/09/11 19:52:51;;;;;;;;;;;18.70;99.90;;;;;;2613590;54;20042;-66
2022/09/11 19:55:20;;;;;;;;;;;18.70;99.90;;;;;;2613700;39;20457;-66
2022/09/11 19:57:50;;;;;;;;;;;18.70;99.90;;;;;;2615036;51;19950;-68
2022/09/11 20:00:23;;;;;;;;;;;18.70;99.90;;;;;;2621440;54;19947;-69
2022/09/11 20:02:53;;;;;;;;;;;18.60;99.90;;;;;;2620269;50;19946;-66
2022/09/11 20:05:23;;;;;;;;;;;18.70;99.90;;;;;;2620830;50;19950;-67
2022/09/11 20:07:52;;;;;;;;;;;18.60;99.90;;;;;;2616962;47;19950;-67
2022/09/11 20:10:22;;;;;;;;;;;18.60;99.90;;;;;;2618229;47;19947;-66
2022/09/11 20:12:52;;;;;;;;;;;18.60;99.90;;;;;;2616565;54;19958;-68
2022/09/11 20:15:24;;;;;;;;;;;18.60;99.90;;;;;;2613176;47;19985;-67
2022/09/11 20:17:53;;;;;;;;;;;18.60;99.90;;;;;;2614474;47;19938;-68
2022/09/11 20:20:23;;;;;;;;;;;18.60;99.90;;;;;;2615051;54;19963;-68
2022/09/11 20:22:53;;;;;;;;;;;18.60;99.90;;;;;;2614276;54;20009;-70
2022/09/11 20:25:23;;;;;;;;;;;18.50;99.90;;;;;;2615255;47;19947;-69
2022/09/11 20:27:52;;;;;;;;;;;18.50;99.90;;;;;;2616036;47;20493;-68
2022/09/11 20:30:24;;;;;;;;;;;18.50;99.90;;;;;;2614532;47;20435;-68
2022/09/11 20:32:54;;;;;;;;;;;18.50;99.90;;;;;;2614877;54;19943;-68
2022/09/11 20:35:24;;;;;;;;;;;18.50;99.90;;;;;;2614397;31;20483;-67
2022/09/11 20:37:54;;;;;;;;;;;18.50;99.90;;;;;;2615400;39;20389;-67
2022/09/11 20:40:23;;;;;;;;;;;18.40;99.90;;;;;;2614103;47;19954;-67
2022/09/11 20:42:53;;;;;;;;;;;18.40;99.90;;;;;;2614478;46;19966;-67
2022/09/11 20:45:25;;;;;;;;;;;18.30;99.90;;;;;;2614384;54;19993;-67
2022/09/11 20:47:54;;;;;;;;;;;18.30;99.90;;;;;;2614083;50;19946;-69
2022/09/11 20:50:24;;;;;;;;;;;18.30;99.90;;;;;;2613412;54;19966;-67
2022/09/11 20:52:54;;;;;;;;;;;18.20;99.90;;;;;;2613096;54;19967;-67
2022/09/11 20:55:23;;;;;;;;;;;18.10;99.90;;;;;;2614459;47;19958;-67
2022/09/11 20:57:53;;;;;;;;;;;18.00;99.90;;;;;;2613956;51;20483;-70
2022/09/11 21:00:25;;;;;;;;;;;18.00;99.90;;;;;;2613632;54;19998;-70
2022/09/11 21:02:55;;;;;;;;;;;18.00;99.90;;;;;;2614148;54;20431;-67
2022/09/11 21:05:24;;;;;;;;;;;17.90;99.90;;;;;;2613774;54;20021;-67
2022/09/11 21:07:54;;;;;;;;;;;17.90;99.90;;;;;;2614357;54;19950;-69
2022/09/11 21:10:23;;;;;;;;;;;17.90;99.90;;;;;;2615040;47;19942;-67
2022/09/11 21:12:53;;;;;;;;;;;17.90;99.90;;;;;;2612722;54;19942;-67
2022/09/11 21:15:25;;;;;;;;;;;17.90;99.90;;;;;;2614385;39;20477;-69
2022/09/11 21:17:54;;;;;;;;;;;17.80;99.90;;;;;;2613632;50;20423;-69
2022/09/11 21:20:24;;;;;;;;;;;17.80;99.90;;;;;;2613842;47;19994;-67
2022/09/11 21:22:53;;;;;;;;;;;17.80;99.90;;;;;;2613725;54;20634;-68
2022/09/11 21:25:23;;;;;;;;;;;17.80;99.90;;;;;;2613937;54;20001;-68
2022/09/11 21:27:52;;;;;;;;;;;17.80;99.90;;;;;;2613912;54;19939;-67
2022/09/11 21:30:25;;;;;;;;;;;17.70;99.90;;;;;;2613348;48;19953;-67
2022/09/11 21:32:54;;;;;;;;;;;17.70;99.90;;;;;;2612745;47;20026;-67
2022/09/11 21:35:24;;;;;;;;;;;17.70;99.90;;;;;;2614821;47;19958;-68
2022/09/11 21:37:53;;;;;;;;;;;17.60;99.90;;;;;;2614207;54;20006;-68
2022/09/11 21:40:23;;;;;;;;;;;17.60;99.90;;;;;;2614175;54;20435;-69
2022/09/11 21:42:52;;;;;;;;;;;17.50;99.90;;;;;;2613566;47;20195;-68
2022/09/11 21:45:24;;;;;;;;;;;17.50;99.90;;;;;;2615367;47;19950;-68
2022/09/11 21:47:54;;;;;;;;;;;17.50;99.90;;;;;;2614292;39;20355;-67
2022/09/11 21:50:24;;;;;;;;;;;17.40;99.90;;;;;;2614927;47;19946;-68
2022/09/11 21:52:53;;;;;;;;;;;17.40;99.90;;;;;;2613076;47;19971;-67
2022/09/11 21:55:23;;;;;;;;;;;17.30;99.90;;;;;;2613942;46;20247;-68
2022/09/11 21:57:52;;;;;;;;;;;17.30;99.90;;;;;;2613095;54;19994;-67
2022/09/11 22:00:24;;;;;;;;;;;17.30;99.90;;;;;;2614186;54;19954;-67
2022/09/11 22:02:54;;;;;;;;;;;17.30;99.90;;;;;;2614509;51;19946;-68
2022/09/11 22:05:23;;;;;;;;;;;17.30;99.90;;;;;;2614402;54;20001;-66
2022/09/11 22:07:53;;;;;;;;;;;17.10;99.90;;;;;;2612619;54;19974;-66
2022/09/11 22:10:22;;;;;;;;;;;17.20;99.90;;;;;;2614401;51;19990;-66
2022/09/11 22:12:52;;;;;;;;;;;17.20;99.90;;;;;;2617221;54;19958;-67
2022/09/11 22:15:24;;;;;;;;;;;17.10;99.90;;;;;;2621702;54;19978;-68
2022/09/11 22:17:54;;;;;;;;;;;17.00;99.90;;;;;;2622030;47;19939;-66
2022/09/11 22:20:23;;;;;;;;;;;17.10;99.90;;;;;;2617749;54;19946;-68
2022/09/11 22:22:55;;;;;;;;;;;17.00;99.90;;;;;;2615231;51;20030;-68
2022/09/11 22:25:24;;;;;;;;;;;17.00;99.90;;;;;;2618998;51;19954;-67
2022/09/11 22:27:55;;;;;;;;;;;17.00;99.90;;;;;;2617463;54;19952;-69
2022/09/11 22:30:29;;;;;;;;;;;17.00;99.90;;;;;;2620719;54;19954;-67
2022/09/11 22:32:58;;;;;;;;;;;17.00;99.90;;;;;;2619253;47;19947;-67
2022/09/11 22:35:28;;;;;;;;;;;16.90;99.90;;;;;;2621964;54;19950;-70
2022/09/11 22:37:58;;;;;;;;;;;16.90;99.90;;;;;;2615183;47;20859;-67
2022/09/11 22:40:27;;;;;;;;;;;16.90;99.90;;;;;;2612889;39;20382;-68
2022/09/11 22:42:57;;;;;;;;;;;16.80;99.90;;;;;;2611437;54;19989;-70
2022/09/11 22:45:29;;;;;;;;;;;16.80;99.90;;;;;;2613921;47;19985;-70
2022/09/11 22:47:59;;;;;;;;;;;17.20;99.90;;;;;;2611715;54;19938;-66
2022/09/11 22:50:29;;;;;;;;;;;16.90;99.90;;;;;;2614498;47;19993;-66
2022/09/11 22:52:59;;;;;;;;;;;16.80;99.90;;;;;;2613665;47;19974;-69
2022/09/11 22:55:28;;;;;;;;;;;16.80;99.90;;;;;;2613129;54;19989;-67
2022/09/11 22:57:58;;;;;;;;;;;16.80;99.90;;;;;;2611908;54;19946;-66
2022/09/11 23:00:30;;;;;;;;;;;16.80;99.90;;;;;;2614295;51;20609;-66
2022/09/11 23:03:00;;;;;;;;;;;16.70;99.90;;;;;;2613883;47;19946;-69
2022/09/11 23:08:11;;;;;;;;;;;16.80;99.90;;;;;;2612897;54;20026;-68
2022/09/11 23:10:41;;;;;;;;;;;16.70;99.90;;;;;;2613750;31;20473;-69
2022/09/11 23:13:11;;;;;;;;;;;16.70;99.90;;;;;;2612656;54;19997;-69
2022/09/11 23:15:43;;;;;;;;;;;16.70;99.90;;;;;;2612487;47;19951;-68
2022/09/11 23:18:13;;;;;;;;;;;16.70;99.90;;;;;;2613185;39;20039;-69
2022/09/11 23:20:42;;;;;;;;;;;16.70;99.90;;;;;;2616297;39;21163;-69
2022/09/11 23:23:12;;;;;;;;;;;16.70;99.90;;;;;;2618772;54;19954;-68
2022/09/11 23:25:41;;;;;;;;;;;16.70;99.90;;;;;;2618647;47;19989;-71
2022/09/11 23:28:11;;;;;;;;;;;16.70;99.90;;;;;;2617647;47;19942;-69
2022/09/11 23:30:43;;;;;;;;;;;16.70;99.90;;;;;;2614927;54;19950;-70
2022/09/11 23:33:13;;;;;;;;;;;16.70;99.90;;;;;;2614353;54;20517;-71
2022/09/11 23:35:42;;;;;;;;;;;16.70;99.90;;;;;;2615586;47;19977;-71
2022/09/11 23:38:12;;;;;;;;;;;16.70;99.90;;;;;;2615556;54;19992;-70
2022/09/11 23:40:41;;;;;;;;;;;16.70;99.90;;;;;;2616030;47;19950;-70
2022/09/11 23:43:11;;;;;;;;;;;16.70;99.90;;;;;;2616377;48;20446;-70
2022/09/11 23:45:40;;;;;;;;;;;16.70;99.90;;;;;;2616481;47;19950;-70
2022/09/11 23:48:12;;;;;;;;;;;16.70;99.90;;;;;;2616306;47;19957;-71
2022/09/11 23:50:42;;;;;;;;;;;16.70;99.90;;;;;;2618258;39;20350;-69
2022/09/11 23:53:11;;;;;;;;;;;16.70;99.90;;;;;;2616222;47;20566;-71
2022/09/11 23:55:41;;;;;;;;;;;16.70;99.90;;;;;;2612831;31;20422;-69
2022/09/11 23:58:11;;;;;;;;;;;16.70;99.90;;;;;;2610708;54;19942;-69
